Time;durP1;ratioP1;P1;durP2;ratioP2;P2;SDS_P1;SDS_P2;PMS_P1;PMS_P2;Temp;Humidity;BMP_temperature;BMP_pressure;BME280_temperature;BME280_humidity;BME280_pressure;Samples;Min_cycle;Max_cycle;Signal;HPM_P1;HPM_P2
2022/01/03 00:01:17;;;;;;;32.38;5.82;;;;;;;10.03;89.12;101155.84;5119950;28;20031;-36
2022/01/03 00:03:43;;;;;;;20.52;3.80;;;;;;;9.97;88.60;101157.53;5119605;28;20032;-36
2022/01/03 00:06:09;;;;;;;24.83;5.18;;;;;;;10.01;89.04;101172.28;5119922;28;20032;-36
2022/01/03 00:08:34;;;;;;;21.50;4.60;;;;;;;9.99;88.63;101177.03;5119721;28;20024;-36
2022/01/03 00:11:00;;;;;;;26.30;4.53;;;;;;;9.98;88.83;101175.41;5120141;28;20076;-36
2022/01/03 00:13:26;;;;;;;19.35;3.80;;;;;;;9.98;89.52;101177.28;5119648;28;20039;-36
2022/01/03 00:15:55;;;;;;;27.92;4.78;;;;;;;9.97;89.04;101184.56;5119872;28;20094;-36
2022/01/03 00:18:22;;;;;;;21.10;4.35;;;;;;;9.95;89.14;101186.63;5119713;28;20034;-36
2022/01/03 00:20:55;;;;;;;27.10;4.47;;;;;;;9.97;89.15;101191.84;5117719;28;20020;-36
2022/01/03 00:23:24;;;;;;;23.83;4.68;;;;;;;9.96;89.19;101190.19;5117094;28;20024;-36
2022/01/03 00:25:51;;;;;;;25.50;5.00;;;;;;;9.93;89.45;101194.13;5116734;28;20026;-36
2022/01/03 00:28:32;;;;;;;22.38;4.47;;;;;;;9.91;89.46;101190.84;5116657;28;20032;-36
2022/01/03 00:30:58;;;;;;;20.83;4.65;;;;;;;9.92;88.94;101187.09;5116927;28;20061;-36
2022/01/03 00:33:24;;;;;;;17.20;4.27;;;;;;;9.89;89.02;101187.50;5116665;28;20110;-36
2022/01/03 00:35:58;;;;;;;20.10;4.43;;;;;;;9.87;89.47;101189.63;5117142;28;20464;-36
2022/01/03 00:38:28;;;;;;;22.98;4.30;;;;;;;9.89;89.11;101190.22;5116263;28;20032;-36
2022/01/03 00:40:54;;;;;;;28.55;4.75;;;;;;;9.87;89.27;101192.31;5116757;28;20060;-36
2022/01/03 00:43:20;;;;;;;;;;;;;;;9.90;89.16;101193.75;5117204;28;20160;-36
2022/01/03 00:45:45;;;;;;;27.70;5.82;;;;;;;9.87;88.96;101184.22;5116428;28;20344;-36
2022/01/03 00:48:11;;;;;;;22.50;4.27;;;;;;;9.92;87.90;101187.09;5116094;28;20028;-36
2022/01/03 00:50:38;;;;;;;22.55;5.20;;;;;;;9.91;88.71;101198.94;5116262;28;20051;-37
2022/01/03 00:53:03;;;;;;;;;;;;;;;9.95;88.39;101194.75;5116463;28;20027;-36
2022/01/03 00:55:29;;;;;;;21.40;4.22;;;;;;;9.91;88.17;101185.44;5115988;28;19918;-36
2022/01/03 00:58:08;;;;;;;22.48;4.15;;;;;;;9.93;87.55;101179.81;5115907;28;20027;-36
2022/01/03 01:00:40;;;;;;;21.35;4.80;;;;;;;9.94;87.89;101193.09;5115858;28;20474;-36
2022/01/03 01:03:10;;;;;;;27.58;6.25;;;;;;;9.88;87.47;101176.94;5116047;28;20477;-36
2022/01/03 01:05:39;;;;;;;20.92;4.70;;;;;;;9.94;87.72;101182.28;5115889;28;20122;-36
2022/01/03 01:08:05;;;;;;;19.35;4.95;;;;;;;9.99;86.80;101179.75;5115262;28;20383;-36
2022/01/03 01:10:33;;;;;;;19.75;4.45;;;;;;;10.00;86.99;101178.72;5115649;28;20031;-36
2022/01/03 01:12:58;;;;;;;27.25;5.40;;;;;;;9.99;87.03;101185.16;5115852;28;20044;-36
2022/01/03 01:15:27;;;;;;;20.17;4.47;;;;;;;9.98;87.21;101194.31;5115512;28;20031;-36
2022/01/03 01:17:54;;;;;;;24.00;4.55;;;;;;;9.99;86.93;101212.16;5115335;28;20060;-36
2022/01/03 01:20:20;;;;;;;21.88;4.57;;;;;;;10.01;86.89;101198.47;5115485;28;20051;-36
2022/01/03 01:22:47;;;;;;;17.73;3.97;;;;;;;9.94;86.91;101189.56;5115526;28;20023;-36
2022/01/03 01:27:48;;;;;;;16.60;4.33;;;;;;;9.96;87.31;101199.13;5115254;28;20039;-36
2022/01/03 01:30:22;;;;;;;20.88;4.55;;;;;;;9.98;87.50;101205.13;5115777;28;20027;-36
2022/01/03 01:33:00;;;;;;;22.75;3.97;;;;;;;9.96;87.18;101215.31;5113765;28;20032;-36
2022/01/03 01:35:30;;;;;;;19.88;4.63;;;;;;;9.96;87.23;101219.91;5115397;28;20035;-36
2022/01/03 01:38:00;;;;;;;18.65;4.22;;;;;;;9.93;87.68;101223.03;5115293;28;20101;-36
2022/01/03 01:40:26;;;;;;;21.20;4.22;;;;;;;9.92;86.99;101224.91;5115517;28;20038;-36
2022/01/03 01:42:53;;;;;;;19.45;4.93;;;;;;;9.73;86.93;101188.88;5114894;28;20023;-36
2022/01/03 01:45:21;;;;;;;23.77;4.57;;;;;;;9.86;87.23;101217.69;5115223;28;20107;-36
2022/01/03 01:47:48;;;;;;;18.17;4.18;;;;;;;9.90;86.59;101218.06;5114817;28;20031;-36
2022/01/03 01:50:14;;;;;;;26.63;4.80;;;;;;;9.89;86.15;101216.41;5114897;28;20028;-36
2022/01/03 01:52:39;;;;;;;19.85;4.50;;;;;;;9.86;86.65;101203.31;5115053;28;20023;-36
2022/01/03 01:55:11;;;;;;;26.10;5.63;;;;;;;9.79;86.23;101198.78;5115589;28;20115;-36
2022/01/03 01:57:52;;;;;;;25.33;4.90;;;;;;;9.86;86.89;101222.22;5115253;28;20031;-36
2022/01/03 02:00:18;;;;;;;23.10;4.38;;;;;;;9.78;86.75;101207.13;5114977;28;20028;-36
2022/01/03 02:02:43;;;;;;;19.55;4.72;;;;;;;9.78;86.72;101213.34;5114285;28;20023;-36
2022/01/03 02:05:18;;;;;;;19.40;4.70;;;;;;;9.69;87.27;101198.44;5114974;28;20055;-36
2022/01/03 02:07:57;;;;;;;20.77;4.20;;;;;;;9.72;87.17;101211.53;5114477;28;20027;-36
2022/01/03 02:10:27;;;;;;;21.52;4.57;;;;;;;9.69;87.33;101220.03;5114274;28;20028;-36
2022/01/03 02:12:53;;;;;;;21.05;5.03;;;;;;;9.65;87.58;101223.38;5114391;28;20487;-36
2022/01/03 02:15:19;;;;;;;18.57;4.40;;;;;;;9.61;87.85;101220.28;5115290;28;20108;-36
2022/01/03 02:17:48;;;;;;;18.33;4.32;;;;;;;9.59;87.71;101221.56;5114082;28;20286;-36
2022/01/03 02:20:32;;;;;;;19.90;4.88;;;;;;;9.50;87.66;101202.06;5114102;28;20155;-36
2022/01/03 02:22:58;;;;;;;26.23;5.72;;;;;;;9.57;87.98;101221.78;5114809;28;20079;-36
2022/01/03 02:25:25;;;;;;;23.85;4.30;;;;;;;9.55;87.76;101218.44;5114232;28;20385;-36
2022/01/03 02:27:52;;;;;;;20.70;5.07;;;;;;;9.55;87.98;101226.56;5114051;28;20034;-36
2022/01/03 02:30:21;;;;;;;21.17;5.53;;;;;;;9.49;88.30;101222.84;5114299;28;20055;-36
2022/01/03 02:32:46;;;;;;;19.15;5.00;;;;;;;9.48;88.12;101213.09;5113741;28;20034;-36
2022/01/03 02:35:12;;;;;;;22.52;4.22;;;;;;;9.47;88.39;101232.22;5114302;28;20032;-36
2022/01/03 02:37:39;;;;;;;23.58;4.50;;;;;;;9.46;87.99;101222.44;5113759;28;20057;-36
2022/01/03 02:40:06;;;;;;;21.48;4.57;;;;;;;9.46;88.11;101225.13;5114772;28;20361;-36
2022/01/03 02:42:31;;;;;;;25.75;4.57;;;;;;;9.44;88.59;101222.66;5113680;28;20514;-36
2022/01/03 02:45:07;;;;;;;29.70;5.20;;;;;;;9.43;88.72;101222.88;5113620;28;20024;-36
2022/01/03 02:47:33;;;;;;;22.63;4.00;;;;;;;9.34;88.77;101211.50;5114121;28;20111;-36
2022/01/03 02:49:58;;;;;;;19.83;3.92;;;;;;;9.40;88.65;101223.31;5114815;28;20466;-36
2022/01/03 02:52:24;;;;;;;24.27;4.63;;;;;;;9.32;88.56;101218.97;5114114;28;20027;-36
2022/01/03 02:54:50;;;;;;;27.65;5.60;;;;;;;9.40;88.51;101223.31;5113481;28;20055;-36
2022/01/03 02:57:15;;;;;;;25.67;4.53;;;;;;;9.38;88.71;101220.81;5113769;28;20031;-36
2022/01/03 02:59:41;;;;;;;24.17;4.97;;;;;;;9.36;88.64;101219.38;5113970;28;20031;-36
2022/01/03 03:02:07;;;;;;;19.13;4.67;;;;;;;9.37;89.05;101221.00;5113656;28;20084;-36
2022/01/03 03:04:47;;;;;;;23.38;4.13;;;;;;;9.30;88.70;101215.66;5113739;28;20375;-36
2022/01/03 03:07:23;;;;;;;22.98;5.03;;;;;;;9.39;88.83;101210.84;5114419;28;20469;-36
2022/01/03 03:09:49;;;;;;;24.40;4.88;;;;;;;9.37;89.65;101229.97;5114246;28;20122;-36
2022/01/03 03:12:15;;;;;;;22.83;5.13;;;;;;;9.22;88.95;101203.25;5113297;28;20127;-36
2022/01/03 03:14:40;;;;;;;19.30;4.68;;;;;;;9.36;89.06;101227.47;5113861;28;20096;-36
2022/01/03 03:17:06;;;;;;;27.20;5.37;;;;;;;9.34;89.73;101227.69;5113589;28;20053;-36
2022/01/03 03:19:31;;;;;;;23.50;5.40;;;;;;;9.32;89.47;101229.78;5113857;28;20391;-36
2022/01/03 03:21:57;;;;;;;19.67;4.82;;;;;;;9.35;89.72;101247.41;5114326;28;20043;-37
2022/01/03 03:24:22;;;;;;;16.20;4.53;;;;;;;9.33;89.97;101238.69;5113870;28;20020;-37
2022/01/03 03:26:48;;;;;;;22.17;4.77;;;;;;;9.32;90.30;101231.63;5113399;28;20038;-36
2022/01/03 03:29:13;;;;;;;21.58;5.32;;;;;;;9.34;90.05;101237.66;5113517;28;20020;-36
2022/01/03 03:31:39;;;;;;;22.03;4.53;;;;;;;9.39;89.75;101245.94;5113419;28;20126;-36
2022/01/03 03:34:05;;;;;;;22.87;5.47;;;;;;;9.38;90.03;101239.72;5094942;28;20262;-36
2022/01/03 03:36:31;;;;;;;30.25;5.50;;;;;;;9.31;89.80;101220.00;5113543;28;20024;-36
2022/01/03 03:38:56;;;;;;;21.67;5.25;;;;;;;9.40;90.52;101231.41;5113026;28;20114;-36
2022/01/03 03:41:21;;;;;;;23.90;5.20;;;;;;;9.40;90.00;101231.41;5113040;28;20069;-36
2022/01/03 03:43:47;;;;;;;19.63;5.20;;;;;;;9.38;90.28;101226.22;5113649;28;20028;-36
2022/01/03 03:46:12;;;;;;;20.87;4.30;;;;;;;9.41;90.35;101223.06;5113000;28;20028;-36
2022/01/03 03:48:39;;;;;;;20.70;4.90;;;;;;;9.37;90.08;101216.47;5113229;28;20136;-36
2022/01/03 03:51:04;;;;;;;21.02;4.22;;;;;;;9.43;90.03;101215.59;5113162;28;20023;-36
2022/01/03 03:53:30;;;;;;;26.65;5.30;;;;;;;9.44;90.19;101221.84;5113201;28;20032;-36
2022/01/03 03:55:55;;;;;;;26.43;5.30;;;;;;;9.42;90.15;101213.09;5114261;28;20456;-36
2022/01/03 03:58:21;;;;;;;33.42;6.13;;;;;;;9.45;90.24;101215.38;5116983;28;20035;-36
2022/01/03 04:00:46;;;;;;;26.10;5.70;;;;;;;9.42;90.31;101222.06;5117408;28;20084;-36
2022/01/03 04:03:12;;;;;;;26.23;5.10;;;;;;;9.36;nan;101205.88;5098918;28;20023;-36
2022/01/03 04:05:37;;;;;;;24.30;5.40;;;;;;;9.32;90.19;101199.25;5117339;28;20031;-36
2022/01/03 04:08:03;;;;;;;23.00;4.93;;;;;;;9.35;90.37;101213.13;5116798;28;20053;-36
2022/01/03 04:10:28;;;;;;;23.85;5.00;;;;;;;9.34;90.19;101208.78;5098932;28;20036;-36
2022/01/03 04:12:53;;;;;;;22.53;5.47;;;;;;;9.35;90.19;101207.75;5116549;28;20055;-36
2022/01/03 04:15:19;;;;;;;32.40;6.30;;;;;;;9.34;90.31;101202.56;5116717;28;20115;-36
2022/01/03 04:17:44;;;;;;;27.27;5.07;;;;;;;9.32;90.51;101208.19;5116775;28;20072;-36
2022/01/03 04:20:10;;;;;;;25.50;5.13;;;;;;;9.22;90.57;101192.44;5116990;28;20046;-36
2022/01/03 04:22:36;;;;;;;26.15;5.75;;;;;;;9.22;91.10;101189.75;5116572;28;20085;-36
2022/01/03 04:25:02;;;;;;;27.50;5.95;;;;;;;9.15;90.97;101177.31;5117074;28;20035;-36
2022/01/03 04:27:28;;;;;;;23.23;4.47;;;;;;;9.28;90.72;101196.16;5116456;28;20112;-36
2022/01/03 04:29:53;;;;;;;32.30;6.07;;;;;;;9.25;90.70;101192.00;5117033;28;20495;-36
2022/01/03 04:32:18;;;;;;;17.90;4.13;;;;;;;9.19;91.49;101181.25;5116170;28;20048;-36
2022/01/03 04:34:44;;;;;;;23.43;4.80;;;;;;;9.26;90.57;101192.81;5116452;28;20023;-36
2022/01/03 04:37:10;;;;;;;23.93;4.70;;;;;;;9.28;90.86;101205.09;5117157;28;20051;-36
2022/01/03 04:39:35;;;;;;;35.47;7.75;;;;;;;9.29;91.34;101189.72;5116859;28;20016;-36
2022/01/03 04:42:00;;;;;;;24.87;4.80;;;;;;;9.25;91.02;101191.19;5116280;28;20057;-36
2022/01/03 04:44:26;;;;;;;21.70;5.00;;;;;;;9.32;91.25;101193.84;5116514;28;20036;-36
2022/01/03 04:46:53;;;;;;;25.97;5.67;;;;;;;9.34;90.80;101189.06;5115731;28;20058;-36
2022/01/03 04:49:18;;;;;;;27.33;5.35;;;;;;;9.31;91.40;101184.91;5116592;28;20498;-36
2022/01/03 04:51:43;;;;;;;22.60;5.10;;;;;;;9.31;90.99;101190.31;5115808;28;20170;-36
2022/01/03 04:54:09;;;;;;;33.77;6.73;;;;;;;9.31;91.23;101192.19;5115897;28;20471;-36
2022/01/03 04:56:34;;;;;;;23.67;4.83;;;;;;;9.33;91.27;101190.94;5115959;28;20325;-36
2022/01/03 04:59:00;;;;;;;21.40;4.87;;;;;;;9.33;90.75;101199.03;5116189;28;20072;-36
2022/01/03 05:01:26;;;;;;;;;;;;;;;9.37;90.81;101194.88;5115943;28;20690;-36
2022/01/03 05:03:52;;;;;;;28.83;4.70;;;;;;;9.34;90.93;101189.06;5116416;28;19992;-36
2022/01/03 05:06:19;;;;;;;25.70;4.68;;;;;;;9.26;90.47;101171.25;5115335;28;20415;-36
2022/01/03 05:08:45;;;;;;;;;;;;;;;9.38;90.90;101190.31;5116087;28;20106;-36
2022/01/03 05:11:10;;;;;;;27.55;5.68;;;;;;;9.29;90.86;101187.00;5115904;28;20011;-36
2022/01/03 05:13:35;;;;;;;23.77;5.17;;;;;;;9.25;90.40;101170.41;5115939;28;20085;-36
2022/01/03 05:16:02;;;;;;;34.10;5.77;;;;;;;9.26;91.09;101176.63;5115904;28;20445;-36
2022/01/03 05:18:28;;;;;;;24.67;5.65;;;;;;;9.29;90.65;101165.44;5115496;28;20384;-36
2022/01/03 05:20:53;;;;;;;26.90;5.78;;;;;;;9.31;90.82;101174.13;5115493;28;20034;-36
2022/01/03 05:23:19;;;;;;;26.42;4.82;;;;;;;9.35;90.60;101169.13;5115485;28;20035;-36
2022/01/03 05:25:45;;;;;;;30.02;5.72;;;;;;;9.26;90.31;101150.47;5116131;28;20027;-37
2022/01/03 05:28:10;;;;;;;29.63;5.97;;;;;;;9.33;90.77;101166.66;5115248;28;20080;-36
2022/01/03 05:30:36;;;;;;;21.17;4.65;;;;;;;9.35;90.75;101167.25;5115286;28;20110;-36
2022/01/03 05:33:02;;;;;;;23.25;4.45;;;;;;;9.28;90.46;101153.81;5114873;28;20107;-36
2022/01/03 05:35:27;;;;;;;21.33;4.53;;;;;;;9.22;91.28;101143.03;5115250;28;20029;-36
2022/01/03 05:37:53;;;;;;;20.67;5.57;;;;;;;9.34;90.96;101162.91;5115102;28;20019;-36
2022/01/03 05:40:18;;;;;;;29.03;5.73;;;;;;;9.30;90.98;101153.59;5115869;28;20149;-36
2022/01/03 05:42:46;;;;;;;22.80;4.77;;;;;;;9.33;91.18;101160.44;5114747;28;20024;-36
2022/01/03 05:45:11;;;;;;;28.33;6.05;;;;;;;9.32;91.44;101170.41;5115295;28;20024;-36
2022/01/03 05:47:39;;;;;;;23.27;5.32;;;;;;;9.32;91.07;101170.41;5115162;28;20031;-37
2022/01/03 05:50:05;;;;;;;20.73;4.63;;;;;;;9.24;90.94;101154.44;5115210;28;20095;-36
2022/01/03 05:52:32;;;;;;;24.42;4.68;;;;;;;9.27;90.76;101151.31;5114474;28;20054;-36
2022/01/03 05:54:58;;;;;;;24.98;5.07;;;;;;;9.29;91.02;101154.63;5114867;28;20059;-36
2022/01/03 05:57:23;;;;;;;31.63;5.37;;;;;;;9.31;91.22;101155.22;5114564;28;20055;-36
2022/01/03 05:59:48;;;;;;;24.30;5.60;;;;;;;9.29;91.14;101154.63;5115070;28;20023;-36
2022/01/03 06:02:14;;;;;;;23.97;4.97;;;;;;;9.28;91.18;101161.06;5114885;28;20019;-36
2022/01/03 06:04:57;;;;;;;21.07;4.60;;;;;;;9.22;90.89;101143.88;5114840;28;20039;-36
2022/01/03 06:07:23;;;;;;;28.55;6.57;;;;;;;9.27;91.36;101151.31;5115249;28;20338;-36
2022/01/03 06:09:49;;;;;;;22.60;4.63;;;;;;;9.28;90.74;101150.28;5114498;28;20035;-36
2022/01/03 06:12:17;;;;;;;23.42;4.90;;;;;;;9.19;90.87;101138.06;5114381;28;20027;-36
2022/01/03 06:14:45;;;;;;;22.67;3.88;;;;;;;9.27;90.70;101152.16;5113866;28;20058;-36
2022/01/03 06:17:12;;;;;;;21.17;4.40;;;;;;;9.20;91.04;101142.41;5114300;28;20211;-36
2022/01/03 06:19:38;;;;;;;20.13;5.63;;;;;;;9.15;91.38;101134.16;5113669;28;20380;-36
2022/01/03 06:22:04;;;;;;;28.35;4.88;;;;;;;9.23;91.42;101148.22;5114347;28;20110;-36
2022/01/03 06:24:30;;;;;;;24.92;4.15;;;;;;;9.22;91.24;101145.72;5114572;28;20126;-36
2022/01/03 06:26:55;;;;;;;18.10;3.80;;;;;;;9.19;91.66;101156.97;5114491;28;20103;-36
2022/01/03 06:29:20;;;;;;;20.10;3.50;;;;;;;9.10;92.10;101142.06;5114186;28;20028;-36
2022/01/03 06:31:47;;;;;;;24.88;4.60;;;;;;;9.12;91.80;101138.09;5114052;28;20047;-36
2022/01/03 06:34:13;;;;;;;22.20;4.50;;;;;;;9.13;91.76;101147.03;5114024;28;20471;-36
2022/01/03 06:36:39;;;;;;;22.67;4.68;;;;;;;9.03;91.81;101125.91;5114039;28;20028;-36
2022/01/03 06:39:05;;;;;;;20.70;4.03;;;;;;;9.09;91.90;101146.63;5114214;28;20034;-36
2022/01/03 06:41:31;;;;;;;24.92;4.68;;;;;;;8.97;92.37;101130.25;5114107;28;20080;-36
2022/01/03 06:43:57;;;;;;;35.17;5.10;;;;;;;8.96;92.26;101133.19;5114618;28;20023;-36
2022/01/03 06:46:23;;;;;;;28.23;5.20;;;;;;;9.05;92.51;101139.16;5113936;28;20019;-36
2022/01/03 06:48:49;;;;;;;;;;;;;;;9.06;92.36;101135.44;5114207;28;20361;-36
2022/01/03 06:51:15;;;;;;;19.27;4.07;;;;;;;8.94;92.79;101127.19;5113825;28;20002;-36
2022/01/03 06:53:40;;;;;;;22.55;4.47;;;;;;;8.99;93.21;101138.97;5114036;28;20028;-36
2022/01/03 06:56:06;;;;;;;27.47;5.53;;;;;;;8.99;93.44;101133.59;5095173;28;20053;-36
2022/01/03 06:58:32;;;;;;;16.00;3.87;;;;;;;8.98;93.12;101129.25;5113328;28;20355;-36
2022/01/03 07:00:57;;;;;;;;;;;;;;;9.05;92.92;101137.31;5114711;28;20031;-36
2022/01/03 07:03:23;;;;;;;21.92;4.40;;;;;;;9.00;94.06;101132.53;5114028;28;20378;-36
2022/01/03 07:05:48;;;;;;;21.70;4.70;;;;;;;9.02;93.62;101141.25;5113911;28;20482;-36
2022/01/03 07:08:14;;;;;;;23.80;4.60;;;;;;;8.99;94.66;101128.19;5113282;28;20423;-36
2022/01/03 07:10:39;;;;;;;18.73;4.80;;;;;;;9.01;94.59;101133.38;5095353;28;20532;-36
2022/01/03 07:13:04;;;;;;;20.57;4.43;;;;;;;8.90;94.80;101115.16;5114379;28;20048;-36
2022/01/03 07:20:58;;;;;;;21.58;4.45;;;;;;;8.95;95.59;101118.88;5113866;28;20603;-36
2022/01/03 07:23:23;;;;;;;18.88;4.20;;;;;;;8.97;95.67;101124.03;5113755;28;20059;-36
2022/01/03 07:25:49;;;;;;;17.80;5.00;;;;;;;8.93;95.92;101120.97;5114023;28;20035;-36
2022/01/03 07:28:15;;;;;;;20.25;4.63;;;;;;;8.93;96.19;101131.75;5113601;28;20478;-36
2022/01/03 07:30:41;;;;;;;19.30;3.78;;;;;;;8.95;96.50;101131.53;5115799;28;20181;-36
2022/01/03 07:33:07;;;;;;;20.70;3.95;;;;;;;8.90;96.43;101121.38;5117661;28;20110;-36
2022/01/03 07:35:32;;;;;;;18.60;3.80;;;;;;;8.90;96.21;101118.69;5118031;28;20024;-36
2022/01/03 07:37:58;;;;;;;17.17;3.50;;;;;;;8.91;96.09;101128.41;5117538;28;20039;-36
2022/01/03 07:40:24;;;;;;;15.30;3.38;;;;;;;8.83;96.60;101119.72;5117474;28;20039;-36
2022/01/03 07:42:50;;;;;;;18.17;4.07;;;;;;;8.85;96.39;101123.88;5117405;28;20027;-36
2022/01/03 07:45:15;;;;;;;17.53;3.40;;;;;;;8.85;96.85;101137.38;5117149;28;20023;-36
2022/01/03 07:47:41;;;;;;;23.23;4.03;;;;;;;8.85;96.42;101131.97;5117236;28;20285;-36
2022/01/03 07:50:08;;;;;;;23.23;3.83;;;;;;;8.85;96.03;101131.97;5118206;28;20028;-36
2022/01/03 07:52:34;;;;;;;13.45;3.90;;;;;;;8.83;96.42;101130.53;5116829;28;20015;-36
2022/01/03 07:54:59;;;;;;;13.68;3.35;;;;;;;8.85;95.90;101140.06;5099151;28;20079;-36
2022/01/03 07:57:25;;;;;;;17.60;4.13;;;;;;;8.84;96.18;101143.00;5117373;28;20031;-36
2022/01/03 07:59:50;;;;;;;17.30;4.03;;;;;;;8.84;96.28;101140.28;5117338;28;20031;-36
2022/01/03 08:02:15;;;;;;;18.57;4.43;;;;;;;8.86;95.73;101144.41;5117207;28;20039;-36
2022/01/03 08:04:41;;;;;;;19.07;4.03;;;;;;;8.86;95.97;101149.81;5117525;28;20051;-36
2022/01/03 08:07:06;;;;;;;13.47;3.20;;;;;;;8.90;95.87;101142.97;5117092;28;20020;-36
2022/01/03 08:09:31;;;;;;;20.10;5.30;;;;;;;8.92;95.72;101138.16;5117268;28;20035;-36
2022/01/03 08:11:57;;;;;;;21.10;4.13;;;;;;;8.94;95.25;101136.09;5117189;28;20027;-36
2022/01/03 08:14:22;;;;;;;17.10;3.63;;;;;;;8.96;95.13;101144.78;5117390;28;20352;-36
2022/01/03 08:16:48;;;;;;;20.17;4.13;;;;;;;8.99;95.29;101144.38;5116783;28;20032;-35
2022/01/03 08:19:13;;;;;;;14.23;3.43;;;;;;;8.92;94.82;101130.06;5117325;28;20379;-36
2022/01/03 08:21:38;;;;;;;15.45;3.83;;;;;;;8.96;95.05;101134.00;5116556;28;20122;-36
2022/01/03 08:24:04;;;;;;;15.20;3.63;;;;;;;9.05;95.02;101139.16;5117155;28;20516;-36
2022/01/03 08:26:31;;;;;;;15.60;3.08;;;;;;;9.06;94.87;101143.53;5116467;28;20027;-36
2022/01/03 08:28:57;;;;;;;20.83;4.80;;;;;;;9.07;94.78;101143.28;5116424;28;20065;-36
2022/01/03 08:31:22;;;;;;;18.85;3.90;;;;;;;9.09;94.37;101143.09;5116103;28;20062;-36
2022/01/03 08:33:48;;;;;;;19.25;4.05;;;;;;;9.11;94.43;101138.31;5116386;28;20031;-36
2022/01/03 08:36:13;;;;;;;19.10;3.70;;;;;;;9.12;94.73;101137.25;5115916;28;20042;-36
2022/01/03 08:38:39;;;;;;;20.02;5.13;;;;;;;9.12;94.53;101123.78;5116833;28;20058;-36
2022/01/03 08:41:05;;;;;;;18.77;4.73;;;;;;;9.14;94.29;101141.41;5116072;28;20055;-36
2022/01/03 08:43:30;;;;;;;17.90;4.82;;;;;;;9.16;93.93;101127.69;5115427;28;20027;-36
2022/01/03 08:45:55;;;;;;;16.27;3.58;;;;;;;9.19;93.78;101132.69;5116219;28;20461;-36
2022/01/03 08:48:22;;;;;;;17.83;3.53;;;;;;;9.20;93.84;101139.72;5116694;28;20055;-36
2022/01/03 08:50:47;;;;;;;;;;;;;;;9.22;93.62;101145.72;5116787;28;20023;-36
2022/01/03 08:53:12;;;;;;;18.63;4.43;;;;;;;9.23;93.74;101147.41;5116022;28;19930;-36
2022/01/03 08:55:38;;;;;;;17.43;4.00;;;;;;;9.08;93.50;101125.25;5116467;28;20329;-36
2022/01/03 08:58:03;;;;;;;24.90;4.87;;;;;;;9.25;93.10;101162.31;5115918;28;20028;-36
2022/01/03 09:00:28;;;;;;;20.60;4.83;;;;;;;9.19;93.66;101162.34;5115977;28;20425;-36
2022/01/03 09:02:54;;;;;;;19.67;3.95;;;;;;;9.28;93.39;101169.19;5116599;28;20432;-36
2022/01/03 09:05:19;;;;;;;26.83;4.97;;;;;;;9.28;93.58;101182.66;5115777;28;20452;-35
2022/01/03 09:07:44;;;;;;;25.50;5.77;;;;;;;9.34;93.78;101172.88;5116138;28;20452;-35
2022/01/03 09:10:11;;;;;;;19.87;4.60;;;;;;;9.38;93.21;101164.13;5116041;28;20069;-35
2022/01/03 09:12:36;;;;;;;26.65;4.55;;;;;;;9.43;93.28;101158.09;5115467;28;20114;-35
2022/01/03 09:15:03;;;;;;;21.13;3.92;;;;;;;9.45;92.54;101156.81;5115643;28;20065;-36
2022/01/03 09:17:28;;;;;;;16.70;3.58;;;;;;;9.46;92.38;101144.97;5115789;28;20383;-36
2022/01/03 09:19:54;;;;;;;19.90;5.40;;;;;;;9.37;93.20;101129.25;5116094;28;20035;-36
2022/01/03 09:22:25;;;;;;;21.20;5.18;;;;;;;9.44;92.98;101141.69;5115469;28;20149;-36
2022/01/03 09:30:09;;;;;;;17.75;4.32;;;;;;;9.46;91.95;101123.38;5115648;28;20450;-36
2022/01/03 09:32:34;;;;;;;20.90;4.95;;;;;;;9.49;92.39;101117.56;5115350;28;20019;-36
2022/01/03 09:35:00;;;;;;;14.93;3.73;;;;;;;9.50;92.02;101112.97;5115087;28;20046;-36
2022/01/03 09:37:25;;;;;;;22.73;4.78;;;;;;;9.59;91.31;101124.34;5115134;28;20397;-36
2022/01/03 09:39:54;;;;;;;21.03;4.43;;;;;;;9.57;91.29;101118.38;5115690;28;20038;-36
2022/01/03 09:42:23;;;;;;;22.50;4.40;;;;;;;9.61;91.61;101108.75;5115083;28;20277;-36
2022/01/03 09:44:50;;;;;;;16.10;3.83;;;;;;;9.60;91.39;101101.72;5115305;28;20375;-36
2022/01/03 09:47:19;;;;;;;19.38;4.80;;;;;;;9.65;91.46;101113.50;5115425;28;20038;-36
2022/01/03 09:49:45;;;;;;;19.42;4.47;;;;;;;9.69;91.03;101100.41;5115767;28;20444;-36
2022/01/03 09:52:11;;;;;;;17.23;3.38;;;;;;;9.75;91.24;101121.94;5114902;28;20447;-36
2022/01/03 09:54:38;;;;;;;16.15;3.35;;;;;;;9.74;90.21;101120.28;5114229;28;20088;-36
2022/01/03 09:57:05;;;;;;;18.15;3.35;;;;;;;9.85;90.54;101109.84;5114801;28;20024;-36
2022/01/03 09:59:31;;;;;;;19.52;4.97;;;;;;;9.91;89.71;101117.09;5114462;28;20020;-37
2022/01/03 10:01:58;;;;;;;23.65;4.15;;;;;;;9.87;89.93;101110.47;5114718;28;20387;-36
2022/01/03 10:04:24;;;;;;;17.42;3.70;;;;;;;10.00;89.54;101126.53;5114629;28;20028;-36
2022/01/03 10:06:50;;;;;;;20.42;5.65;;;;;;;9.94;89.09;101098.53;5114566;28;20027;-36
2022/01/03 10:09:17;;;;;;;23.05;5.18;;;;;;;9.95;89.14;101102.88;5114611;28;20035;-36
2022/01/03 10:11:43;;;;;;;21.23;4.30;;;;;;;10.00;89.24;101115.72;5114223;28;20024;-36
2022/01/03 10:14:11;;;;;;;23.27;5.03;;;;;;;9.98;89.72;101110.56;5115498;28;20062;-36
2022/01/03 10:16:37;;;;;;;25.42;5.50;;;;;;;9.99;89.65;101112.22;5114077;28;20028;-36
2022/01/03 10:19:02;;;;;;;24.70;4.78;;;;;;;9.95;89.43;101102.88;5114695;28;20035;-36
2022/01/03 10:21:50;;;;;;;27.87;4.47;;;;;;;10.06;89.43;101112.16;5114376;28;20447;-37
2022/01/03 10:24:18;;;;;;;23.38;4.85;;;;;;;10.12;89.15;101118.56;5114829;28;20477;-36
2022/01/03 10:26:54;;;;;;;18.67;4.20;;;;;;;10.14;89.47;101125.38;5114230;28;20027;-37
2022/01/03 10:29:25;;;;;;;22.55;4.82;;;;;;;10.17;88.65;101126.84;5114459;28;20030;-36
2022/01/03 10:31:57;;;;;;;17.70;3.85;;;;;;;10.16;88.57;101114.38;5114280;28;20024;-36
2022/01/03 10:34:23;;;;;;;21.23;4.88;;;;;;;10.09;88.91;101087.38;5114579;28;20451;-36
2022/01/03 10:36:50;;;;;;;20.88;3.47;;;;;;;10.09;89.00;101083.88;5114275;28;20042;-36
2022/01/03 10:39:24;;;;;;;18.45;4.97;;;;;;;10.13;88.64;101101.28;5114089;28;20118;-36
2022/01/03 10:42:12;;;;;;;24.80;3.78;;;;;;;10.09;88.77;101095.50;5113904;28;20095;-36
2022/01/03 10:44:40;;;;;;;18.65;4.15;;;;;;;10.02;88.88;101084.75;5114342;28;20379;-37
2022/01/03 10:47:08;;;;;;;18.70;4.13;;;;;;;10.04;88.52;101085.34;5114002;28;20019;-36
2022/01/03 10:49:36;;;;;;;21.42;4.70;;;;;;;10.03;88.94;101086.41;5114174;28;20027;-37
2022/01/03 10:52:22;;;;;;;18.40;3.78;;;;;;;10.05;89.21;101078.06;5113792;28;20443;-36
2022/01/03 10:55:15;;;;;;;15.95;3.72;;;;;;;10.02;88.90;101076.66;5114282;28;20035;-36
2022/01/03 10:57:49;;;;;;;16.67;3.63;;;;;;;10.03;89.49;101077.47;5114420;28;20027;-36
2022/01/03 11:00:37;;;;;;;25.05;5.80;;;;;;;10.03;88.83;101074.78;5114466;28;20372;-36
2022/01/03 11:03:13;;;;;;;;;;;;;;;10.07;88.67;101071.41;5012001;28;20045;-36
2022/01/03 11:05:40;;;;;;;17.08;3.15;;;;;;;10.03;88.13;101070.19;5011092;28;20389;-36
2022/01/03 11:10:45;;;;;;;19.02;4.55;;;;;;;10.01;88.58;101055.28;5011273;28;20070;-36
2022/01/03 11:13:18;;;;;;;18.75;5.15;;;;;;;10.04;88.64;101052.94;5011422;28;20049;-36
2022/01/03 11:15:55;;;;;;;19.02;4.57;;;;;;;10.06;88.43;101050.84;5011542;28;20038;-36
2022/01/03 11:18:25;;;;;;;16.33;3.80;;;;;;;9.97;88.54;101035.97;5011186;28;20145;-36
2022/01/03 11:21:19;;;;;;;21.40;4.60;;;;;;;10.05;88.32;101054.59;5011463;28;20042;-36
2022/01/03 11:24:09;;;;;;;20.40;4.38;;;;;;;10.05;88.83;101051.91;5010910;28;20037;-36
2022/01/03 11:26:38;;;;;;;20.02;4.13;;;;;;;9.99;88.39;101039.25;5011569;28;20463;-36
2022/01/03 11:29:03;;;;;;;19.17;4.45;;;;;;;9.93;88.82;101042.84;5010707;28;20069;-36
2022/01/03 11:31:33;;;;;;;21.70;5.18;;;;;;;10.01;89.14;101042.59;5011659;28;20034;-36
2022/01/03 11:33:59;;;;;;;17.63;4.68;;;;;;;9.97;88.71;101027.88;5011292;28;20454;-36
2022/01/03 11:36:25;;;;;;;19.08;4.05;;;;;;;10.08;89.14;101039.81;5011312;28;20114;-37
2022/01/03 11:38:53;;;;;;;14.95;4.10;;;;;;;10.11;88.23;101041.25;5011604;28;20037;-37
2022/01/03 11:41:18;;;;;;;19.08;3.70;;;;;;;10.11;88.57;101033.97;5113813;28;20028;-37
2022/01/03 11:43:44;;;;;;;18.40;3.97;;;;;;;10.05;88.68;101024.03;5114147;28;20038;-37